createdAt,value
2019-02-06T00:03:55.356Z,156534.66
2019-02-06T00:06:21.226Z,156543.67
2019-02-06T00:08:47.527Z,156539.84
2019-02-06T00:11:13.427Z,156559.19
2019-02-06T00:13:39.505Z,156541.13
2019-02-06T00:16:05.628Z,156537.22
2019-02-06T00:18:31.516Z,156541.13
2019-02-06T00:20:58.322Z,156525.59
2019-02-06T00:23:25.367Z,156554.02
2019-02-06T00:25:51.617Z,156564.36
2019-02-06T00:31:00.144Z,156588.89
2019-02-06T00:33:29.785Z,156574.70
2019-02-06T00:35:59.253Z,156579.88
2019-02-06T00:38:28.736Z,156569.53
2019-02-06T00:40:58.214Z,156570.81
2019-02-06T00:43:28.053Z,156578.55
2019-02-06T00:45:57.531Z,156575.98
2019-02-06T00:48:27.337Z,156561.80
2019-02-06T00:50:56.823Z,156569.53
2019-02-06T00:53:26.304Z,156585.00
2019-02-06T00:55:56.115Z,156579.88
2019-02-06T00:58:25.776Z,156578.55
2019-02-06T01:00:55.309Z,156551.45
2019-02-06T01:03:25.201Z,156534.66
2019-02-06T01:05:54.689Z,156523.05
2019-02-06T01:08:24.159Z,156520.48
2019-02-06T01:10:53.616Z,156528.22
2019-02-06T01:13:23.457Z,156548.84
2019-02-06T01:15:53.212Z,156542.41
2019-02-06T01:18:22.681Z,156525.59
2019-02-06T01:20:52.647Z,156512.70
2019-02-06T01:23:22.133Z,156502.41
2019-02-06T01:25:51.613Z,156484.34
2019-02-06T01:28:21.392Z,156472.72
2019-02-06T01:30:52.543Z,156480.44
2019-02-06T01:33:22.181Z,156466.22
2019-02-06T01:35:51.642Z,156462.38
2019-02-06T01:38:21.158Z,156445.59
2019-02-06T01:40:50.646Z,156443.03
2019-02-06T01:43:20.404Z,156444.31
2019-02-06T01:45:50.243Z,156448.14
2019-02-06T01:48:19.734Z,156449.47
2019-02-06T01:50:49.200Z,156446.86
2019-02-06T01:53:18.702Z,156445.59
2019-02-06T01:55:48.193Z,156455.92
2019-02-06T01:58:18.103Z,156449.47
2019-02-06T02:00:47.625Z,156427.52
2019-02-06T02:03:17.098Z,156424.95
2019-02-06T02:05:47.419Z,156422.34
2019-02-06T02:08:17.547Z,156417.17
2019-02-06T02:10:47.185Z,156403.00
2019-02-06T02:13:17.295Z,156401.72
2019-02-06T02:15:47.044Z,156400.39
2019-02-06T02:18:16.694Z,156406.89
2019-02-06T02:20:46.438Z,156408.17
2019-02-06T02:23:15.970Z,156403.00
2019-02-06T02:25:45.721Z,156431.41
2019-02-06T02:28:15.736Z,156423.63
2019-02-06T02:30:47.030Z,156432.69
2019-02-06T02:33:16.768Z,156445.59
2019-02-06T02:35:46.619Z,156440.41
2019-02-06T02:38:16.363Z,156410.72
2019-02-06T02:40:46.244Z,156396.55
2019-02-06T02:43:15.867Z,156406.89
2019-02-06T02:45:45.720Z,156403.00
2019-02-06T02:48:15.179Z,156418.45
2019-02-06T02:50:44.667Z,156435.25
2019-02-06T02:53:14.484Z,156428.80
2019-02-06T02:55:44.270Z,156404.28
2019-02-06T02:58:13.765Z,156392.66
2019-02-06T03:00:56.789Z,156391.38
2019-02-06T03:03:39.817Z,156399.11
2019-02-06T03:06:10.061Z,156391.38
2019-02-06T03:08:39.506Z,156419.78
2019-02-06T03:11:08.986Z,156443.03
2019-02-06T03:13:38.475Z,156444.31
2019-02-06T03:16:08.096Z,156445.59
2019-02-06T03:18:37.568Z,156446.86
2019-02-06T03:21:07.396Z,156430.08
2019-02-06T03:23:36.864Z,156409.44
2019-02-06T03:26:06.368Z,156381.05
2019-02-06T03:28:35.858Z,156391.38
2019-02-06T03:31:05.853Z,156422.34
2019-02-06T03:33:35.732Z,156428.80
2019-02-06T03:36:05.553Z,156396.55
2019-02-06T03:38:35.058Z,156397.83
2019-02-06T03:41:05.207Z,156404.28
2019-02-06T03:43:34.973Z,156408.17
2019-02-06T03:46:04.738Z,156399.11
2019-02-06T03:48:34.209Z,156381.05
2019-02-06T03:51:04.235Z,156356.53
2019-02-06T03:53:33.735Z,156352.64
2019-02-06T03:56:03.214Z,156365.59
2019-02-06T03:58:32.677Z,156373.31
2019-02-06T04:01:02.568Z,156368.14
2019-02-06T04:03:32.191Z,156360.41
2019-02-06T04:06:02.116Z,156365.59
2019-02-06T04:08:31.597Z,156361.69
2019-02-06T04:11:01.165Z,156362.98
2019-02-06T04:13:30.805Z,156355.25
2019-02-06T04:16:00.576Z,156334.58
2019-02-06T04:18:30.032Z,156324.28
2019-02-06T04:20:59.805Z,156312.67
2019-02-06T04:23:29.559Z,156303.63
2019-02-06T04:25:59.028Z,156295.89
2019-02-06T04:28:28.498Z,156280.39
2019-02-06T04:30:58.344Z,156275.22
2019-02-06T04:33:27.834Z,156266.22
2019-02-06T04:35:57.705Z,156258.50
2019-02-06T04:38:27.154Z,156245.55
2019-02-06T04:40:56.812Z,156232.66
2019-02-06T04:43:26.352Z,156227.50
2019-02-06T04:45:55.834Z,156209.44
2019-02-06T04:48:25.311Z,156184.94
2019-02-06T04:50:55.149Z,156174.61
2019-02-06T04:53:24.642Z,156152.72
2019-02-06T04:55:54.553Z,156121.78
2019-02-06T04:58:23.993Z,156092.12
2019-02-06T05:00:53.852Z,156085.67
2019-02-06T05:03:25.687Z,156092.12
2019-02-06T05:05:54.614Z,156115.33
2019-02-06T05:08:24.092Z,156130.78
2019-02-06T05:10:53.666Z,156148.83
2019-02-06T05:13:23.520Z,156177.22
2019-02-06T05:15:52.997Z,156199.16
2019-02-06T05:18:22.568Z,156219.77
2019-02-06T05:20:52.765Z,156240.44
2019-02-06T05:23:22.563Z,156252.00
2019-02-06T05:25:52.030Z,156257.16
2019-02-06T05:28:21.525Z,156264.94
2019-02-06T05:30:51.038Z,156268.78
2019-02-06T05:33:20.908Z,156279.11
2019-02-06T05:35:50.753Z,156279.11
2019-02-06T05:38:20.236Z,156297.17
2019-02-06T05:40:49.708Z,156293.28
2019-02-06T05:43:19.183Z,156307.50
2019-02-06T05:45:48.643Z,156302.34
2019-02-06T05:48:18.129Z,156302.34
2019-02-06T05:50:48.148Z,156290.72
2019-02-06T05:53:17.636Z,156306.22
2019-02-06T05:55:48.097Z,156312.67
2019-02-06T05:58:17.572Z,156321.69
2019-02-06T06:00:47.856Z,156435.25
2019-02-06T06:03:20.566Z,156582.44
2019-02-06T06:05:50.815Z,156652.19
2019-02-06T06:08:20.296Z,156652.19
2019-02-06T06:10:49.751Z,156586.33
2019-02-06T06:13:19.223Z,156587.61
2019-02-06T06:15:48.756Z,156538.55
2019-02-06T06:18:18.493Z,156470.09
2019-02-06T06:20:47.944Z,156426.23
2019-02-06T06:23:17.419Z,156388.78
2019-02-06T06:25:46.883Z,156357.81
2019-02-06T06:28:16.365Z,156350.08
2019-02-06T06:30:47.424Z,156344.91
2019-02-06T06:33:17.610Z,156350.08
2019-02-06T06:35:47.063Z,156353.97
2019-02-06T06:38:16.540Z,156359.09
2019-02-06T06:40:46.331Z,156346.19
2019-02-06T06:43:16.556Z,156342.36
2019-02-06T06:45:46.124Z,156350.08
2019-02-06T06:48:15.819Z,156352.64
2019-02-06T06:50:45.283Z,156352.64
2019-02-06T06:53:14.837Z,156352.64
2019-02-06T06:55:44.634Z,156355.25
2019-02-06T06:58:14.147Z,156366.88
2019-02-06T07:00:43.609Z,156372.03
2019-02-06T07:03:13.090Z,156360.41
2019-02-06T07:05:42.539Z,156350.08
2019-02-06T07:08:13.481Z,156341.03
2019-02-06T07:10:43.565Z,156338.47
2019-02-06T07:13:13.207Z,156330.75
2019-02-06T07:15:42.661Z,156329.41
2019-02-06T07:18:12.126Z,156326.84
2019-02-06T07:20:41.756Z,156322.97
2019-02-06T07:23:11.290Z,156329.41
2019-02-06T07:25:40.820Z,156326.84
2019-02-06T07:28:10.295Z,156334.58
2019-02-06T07:30:39.765Z,156350.08
2019-02-06T07:33:09.680Z,156375.88
2019-02-06T07:35:39.514Z,156476.56
2019-02-06T07:38:13.370Z,156640.56
2019-02-06T07:40:40.888Z,156749.06
2019-02-06T07:43:10.356Z,156848.56
2019-02-06T07:45:39.820Z,156990.72
2019-02-06T07:48:09.457Z,157091.58
2019-02-06T07:50:39.221Z,157288.22
2019-02-06T07:53:09.050Z,157512.16
2019-02-06T07:55:38.508Z,157595.06
2019-02-06T07:58:08.268Z,157696.09
2019-02-06T08:00:38.099Z,157812.72
2019-02-06T08:03:07.638Z,158014.95
2019-02-06T08:05:37.473Z,157912.53
2019-02-06T08:08:07.316Z,157938.45
2019-02-06T08:10:36.766Z,157789.39
2019-02-06T08:13:06.418Z,157798.50
2019-02-06T08:15:35.893Z,157772.53
2019-02-06T08:18:06.097Z,157780.34
2019-02-06T08:20:35.995Z,157851.62
2019-02-06T08:23:05.583Z,157956.59
2019-02-06T08:25:35.039Z,157920.31
2019-02-06T08:28:04.582Z,158096.66
2019-02-06T08:30:39.425Z,158126.50
2019-02-06T08:33:08.897Z,158241.94
2019-02-06T08:35:38.373Z,158296.42
2019-02-06T08:38:08.061Z,158265.30
2019-02-06T08:40:37.538Z,158502.83
2019-02-06T08:43:07.027Z,158348.41
2019-02-06T08:45:36.505Z,157999.38
2019-02-06T08:48:05.973Z,158082.38
2019-02-06T08:50:35.437Z,158057.73
2019-02-06T08:53:04.901Z,158182.25
2019-02-06T08:55:34.360Z,158231.53
2019-02-06T08:58:03.883Z,158292.52
2019-02-06T09:00:36.765Z,158293.84
2019-02-06T09:03:08.026Z,158068.13
2019-02-06T09:05:37.501Z,158228.97
2019-02-06T09:08:07.245Z,158454.80
2019-02-06T09:10:36.789Z,158443.16
2019-02-06T09:13:06.330Z,158486.00
2019-02-06T09:15:35.851Z,158363.94
2019-02-06T09:18:06.972Z,158175.78
2019-02-06T09:20:36.785Z,158127.78
2019-02-06T09:23:06.306Z,158283.45
2019-02-06T09:25:35.810Z,158347.06
2019-02-06T09:28:05.651Z,158437.95
2019-02-06T09:30:35.994Z,158317.16
2019-02-06T09:33:06.277Z,158439.25
2019-02-06T09:35:35.820Z,158475.59
2019-02-06T09:38:06.318Z,158424.94
2019-02-06T09:40:35.848Z,158572.95
2019-02-06T09:43:05.607Z,158337.95
2019-02-06T09:45:35.078Z,158278.27
2019-02-06T09:48:05.150Z,158353.59
2019-02-06T09:50:36.354Z,158354.89
2019-02-06T09:53:05.992Z,158254.91
2019-02-06T09:55:35.542Z,158349.69
2019-02-06T09:58:05.302Z,158344.48
2019-02-06T10:00:36.509Z,158415.87
2019-02-06T10:03:07.179Z,158487.28
2019-02-06T10:05:36.653Z,158627.50
2019-02-06T10:08:06.586Z,158408.09
2019-02-06T10:10:36.334Z,158489.86
2019-02-06T10:13:05.930Z,158480.78
2019-02-06T10:15:37.340Z,158386.03
2019-02-06T10:18:07.462Z,158357.45
2019-02-06T10:20:45.366Z,158024.00
2019-02-06T10:23:15.124Z,158112.20
2019-02-06T10:25:45.135Z,158286.03
2019-02-06T10:28:14.615Z,158276.97
2019-02-06T10:30:47.274Z,158373.05
2019-02-06T10:33:19.048Z,158602.83
2019-02-06T10:35:51.829Z,158584.66
2019-02-06T10:38:20.226Z,158906.91
2019-02-06T10:40:49.749Z,158877.02
2019-02-06T10:43:31.312Z,158652.17
2019-02-06T10:45:50.949Z,158449.64
2019-02-06T10:48:20.416Z,158575.59
2019-02-06T10:50:49.967Z,158531.41
2019-02-06T10:53:19.424Z,158615.81
2019-02-06T10:55:48.896Z,158510.66
2019-02-06T10:58:19.066Z,158295.14
2019-02-06T11:00:54.870Z,158465.19
2019-02-06T11:03:25.044Z,158644.39
2019-02-06T11:05:54.519Z,158899.12
2019-02-06T11:08:23.993Z,159086.31
2019-02-06T11:10:53.755Z,158873.09
2019-02-06T11:13:23.238Z,158711.92
2019-02-06T11:15:53.056Z,158722.33
2019-02-06T11:18:22.872Z,158676.89
2019-02-06T11:20:52.352Z,158827.64
2019-02-06T11:23:21.827Z,158902.98
2019-02-06T11:25:51.302Z,158600.25
2019-02-06T11:28:20.767Z,158387.31
2019-02-06T11:30:52.556Z,158389.94
2019-02-06T11:33:22.621Z,158484.66
2019-02-06T11:35:52.134Z,158324.98
2019-02-06T11:38:21.674Z,158387.31
2019-02-06T11:40:51.714Z,158535.31
2019-02-06T11:43:21.505Z,158691.16
2019-02-06T11:45:50.987Z,158883.50
2019-02-06T11:48:20.453Z,158819.75
2019-02-06T11:50:49.931Z,158527.55
2019-02-06T11:53:19.839Z,158450.94
2019-02-06T11:55:49.855Z,158610.61
2019-02-06T11:58:19.554Z,158480.78
2019-02-06T12:00:51.182Z,158434.05
2019-02-06T12:03:22.234Z,158291.22
2019-02-06T12:05:52.012Z,158236.73
2019-02-06T12:08:21.790Z,158197.84
2019-02-06T12:10:51.717Z,158149.84
2019-02-06T12:13:21.201Z,158308.11
2019-02-06T12:15:50.700Z,158387.31
2019-02-06T12:18:20.181Z,158431.47
2019-02-06T12:20:49.925Z,158556.06
2019-02-06T12:23:31.536Z,158280.84
2019-02-06T12:25:50.564Z,158391.22
2019-02-06T12:28:20.210Z,158514.52
2019-02-06T12:30:51.856Z,158295.14
2019-02-06T12:33:21.765Z,158283.45
2019-02-06T12:35:51.238Z,158566.47
2019-02-06T12:38:20.699Z,158423.66
2019-02-06T12:40:50.450Z,158126.50
2019-02-06T12:43:20.001Z,158140.75
2019-02-06T12:45:49.674Z,158164.09
2019-02-06T12:48:19.590Z,158178.34
2019-02-06T12:50:49.075Z,158288.66
2019-02-06T12:53:18.831Z,158179.69
2019-02-06T12:55:48.321Z,157961.78
2019-02-06T12:58:18.163Z,158003.28
2019-02-06T13:00:49.819Z,158018.86
2019-02-06T13:03:22.375Z,157976.03
2019-02-06T13:05:51.879Z,157979.94
2019-02-06T13:08:21.333Z,158003.28
2019-02-06T13:10:50.792Z,158135.55
2019-02-06T13:13:20.551Z,158094.05
2019-02-06T13:15:50.009Z,158033.09
2019-02-06T13:18:19.470Z,158184.83
2019-02-06T13:20:51.452Z,158072.03
2019-02-06T13:23:20.371Z,158033.09
2019-02-06T13:25:49.891Z,158021.44
2019-02-06T13:28:19.439Z,157869.78
2019-02-06T13:30:49.889Z,157841.25
2019-02-06T13:33:19.619Z,157876.25
2019-02-06T13:35:49.102Z,157894.39
2019-02-06T13:38:18.939Z,157755.73
2019-02-06T13:40:48.400Z,157701.28
2019-02-06T13:43:19.433Z,157650.73
2019-02-06T13:45:49.548Z,157772.53
2019-02-06T13:48:19.175Z,157890.48
2019-02-06T13:50:48.632Z,157816.63
2019-02-06T13:53:18.395Z,157681.81
2019-02-06T13:55:48.658Z,157608.00
2019-02-06T13:58:20.285Z,157574.31
2019-02-06T14:00:52.271Z,157611.91
2019-02-06T14:03:20.937Z,157510.87
2019-02-06T14:05:50.432Z,157457.80
2019-02-06T14:08:20.003Z,157461.66
2019-02-06T14:10:58.556Z,157495.33
2019-02-06T14:13:20.927Z,157497.89
2019-02-06T14:15:50.711Z,157495.33
2019-02-06T14:18:20.268Z,157490.14
2019-02-06T14:20:50.368Z,157433.20
2019-02-06T14:23:25.883Z,157453.89
2019-02-06T14:26:28.660Z,157395.63
2019-02-06T14:29:04.120Z,157378.84
2019-02-06T14:31:49.316Z,157347.75
2019-02-06T14:34:33.887Z,157330.97
2019-02-06T14:37:21.544Z,157330.97
2019-02-06T14:39:59.994Z,157228.69
2019-02-06T14:42:45.237Z,157166.62
2019-02-06T14:45:43.946Z,157165.34
2019-02-06T14:48:32.023Z,157193.81
2019-02-06T14:51:17.085Z,157140.77
2019-02-06T14:53:55.695Z,157107.13
2019-02-06T14:56:40.347Z,157113.58
2019-02-06T14:59:30.567Z,157069.63
2019-02-06T15:02:15.536Z,157122.66
2019-02-06T15:04:53.968Z,157087.73
2019-02-06T15:07:35.812Z,157006.25
2019-02-06T15:10:23.544Z,156923.50
2019-02-06T15:13:32.883Z,156942.88
2019-02-06T15:16:14.691Z,156970.06
2019-02-06T15:18:56.343Z,156949.39
2019-02-06T15:21:47.106Z,156848.56
2019-02-06T15:24:28.462Z,156835.61
2019-02-06T15:27:01.111Z,156827.88
2019-02-06T15:29:39.752Z,156752.95
2019-02-06T15:32:19.107Z,156724.52
2019-02-06T15:35:00.731Z,156699.98
2019-02-06T15:37:33.426Z,156647.02
2019-02-06T15:40:15.357Z,156634.11
2019-02-06T15:43:03.185Z,156617.31
2019-02-06T15:45:38.611Z,156574.70
2019-02-06T15:48:42.962Z,156542.41
2019-02-06T15:51:44.400Z,156523.05
2019-02-06T15:54:42.718Z,156510.14
2019-02-06T15:57:18.340Z,156511.42
2019-02-06T15:59:56.509Z,156492.06
2019-02-06T16:02:29.168Z,156484.34
2019-02-06T16:05:19.415Z,156466.22
2019-02-06T16:08:25.793Z,156450.75
2019-02-06T16:11:04.295Z,156443.03
2019-02-06T16:13:53.337Z,156432.69
2019-02-06T16:16:59.274Z,156412.00
2019-02-06T16:19:34.921Z,156412.00
2019-02-06T16:22:19.434Z,156388.78
2019-02-06T16:24:54.772Z,156386.22
2019-02-06T16:27:27.423Z,156378.48
2019-02-06T16:30:30.288Z,156368.14
2019-02-06T16:33:15.408Z,156352.64
2019-02-06T16:36:07.294Z,156355.25
2019-02-06T16:38:40.326Z,156350.08
2019-02-06T16:41:41.517Z,156348.80
2019-02-06T16:44:21.235Z,156344.91
2019-02-06T16:47:05.733Z,156337.19
2019-02-06T16:49:54.925Z,156328.13
2019-02-06T16:52:50.458Z,156320.41
2019-02-06T16:55:58.018Z,156316.52
2019-02-06T16:58:49.466Z,156311.34
2019-02-06T17:01:47.548Z,156306.22
2019-02-06T17:04:32.378Z,156299.78
2019-02-06T17:07:07.657Z,156279.11
2019-02-06T17:09:43.197Z,156289.44
2019-02-06T17:12:16.303Z,156285.56
2019-02-06T17:15:10.330Z,156281.67
2019-02-06T17:18:16.708Z,156273.94
2019-02-06T17:20:55.380Z,156288.16
2019-02-06T17:23:31.096Z,156279.11
2019-02-06T17:26:20.204Z,156268.78
2019-02-06T17:29:09.452Z,156284.28
2019-02-06T17:31:42.381Z,156279.11
2019-02-06T17:34:33.007Z,156279.11
2019-02-06T17:37:20.514Z,156267.50
2019-02-06T17:39:58.932Z,156275.22
2019-02-06T17:42:40.405Z,156281.67
2019-02-06T17:45:43.633Z,156270.11
2019-02-06T17:48:19.399Z,156267.50
2019-02-06T17:51:08.740Z,156262.33
2019-02-06T17:53:44.178Z,156258.50
2019-02-06T17:56:14.023Z,156261.06
2019-02-06T17:58:44.158Z,156262.33
2019-02-06T18:01:17.233Z,156261.06
2019-02-06T18:03:48.058Z,156266.22
2019-02-06T18:06:17.513Z,156263.61
2019-02-06T18:08:56.332Z,156252.00
2019-02-06T18:11:18.545Z,156241.72
2019-02-06T18:13:48.300Z,156236.55
2019-02-06T18:16:21.322Z,156230.09
2019-02-06T18:18:48.941Z,156230.09
2019-02-06T18:21:18.403Z,156246.87
2019-02-06T18:23:47.951Z,156262.33
2019-02-06T18:26:17.471Z,156259.78
2019-02-06T18:28:47.645Z,156249.44
2019-02-06T18:31:17.110Z,156241.72
2019-02-06T18:33:46.599Z,156231.38
2019-02-06T18:36:16.056Z,156226.22
2019-02-06T18:38:46.982Z,156226.22
2019-02-06T18:41:16.621Z,156221.05
2019-02-06T18:43:46.092Z,156233.94
2019-02-06T18:46:15.908Z,156221.05
2019-02-06T18:48:45.380Z,156205.59
2019-02-06T18:51:14.846Z,156205.59
2019-02-06T18:53:44.336Z,156205.59
2019-02-06T18:56:13.884Z,156210.77
2019-02-06T18:58:43.400Z,156203.00
2019-02-06T19:01:15.556Z,156210.77
2019-02-06T19:03:46.881Z,156197.83
2019-02-06T19:06:18.881Z,156203.00
2019-02-06T19:08:47.590Z,156193.98
2019-02-06T19:11:17.169Z,156196.55
2019-02-06T19:13:46.724Z,156187.55
2019-02-06T19:16:16.545Z,156190.09
2019-02-06T19:18:46.037Z,156174.61
2019-02-06T19:21:15.674Z,156182.37
2019-02-06T19:23:45.417Z,156186.22
2019-02-06T19:26:14.945Z,156182.37
2019-02-06T19:28:44.417Z,156177.22
2019-02-06T19:31:17.557Z,156184.94
2019-02-06T19:33:47.314Z,156170.77
2019-02-06T19:36:16.783Z,156161.72
2019-02-06T19:38:46.640Z,156166.88
2019-02-06T19:41:16.408Z,156160.44
2019-02-06T19:43:45.964Z,156177.22
2019-02-06T19:46:15.718Z,156190.09
2019-02-06T19:48:45.205Z,156193.98
2019-02-06T19:51:14.675Z,156187.55
2019-02-06T19:53:44.523Z,156182.37
2019-02-06T19:56:14.054Z,156177.22
2019-02-06T19:58:43.552Z,156164.31
2019-02-06T20:01:13.287Z,156166.88
2019-02-06T20:03:42.756Z,156164.31
2019-02-06T20:06:13.946Z,156159.16
2019-02-06T20:08:43.466Z,156159.16
2019-02-06T20:11:13.765Z,156159.16
2019-02-06T20:13:43.661Z,156165.59
2019-02-06T20:16:13.158Z,156151.44
2019-02-06T20:18:42.649Z,156166.88
2019-02-06T20:21:12.147Z,156147.55
2019-02-06T20:23:41.614Z,156125.61
2019-02-06T20:26:11.110Z,156115.33
2019-02-06T20:28:40.955Z,156119.17
2019-02-06T20:31:10.455Z,156115.33
2019-02-06T20:33:39.932Z,156133.38
2019-02-06T20:36:09.438Z,156141.11
2019-02-06T20:38:38.907Z,156141.11
2019-02-06T20:41:08.428Z,156134.66
2019-02-06T20:43:38.236Z,156152.72
2019-02-06T20:46:08.049Z,156143.66
2019-02-06T20:48:37.534Z,156142.38
2019-02-06T20:51:07.309Z,156141.11
2019-02-06T20:53:36.772Z,156138.50
2019-02-06T20:56:06.504Z,156119.17
2019-02-06T20:58:36.013Z,156101.11
2019-02-06T21:01:05.846Z,156092.12
2019-02-06T21:03:35.825Z,156084.34
2019-02-06T21:06:06.038Z,156080.52
2019-02-06T21:08:35.542Z,156062.47
2019-02-06T21:11:05.316Z,156089.50
2019-02-06T21:13:34.796Z,156084.34
2019-02-06T21:16:04.572Z,156077.91
2019-02-06T21:18:34.040Z,156072.73
2019-02-06T21:21:03.506Z,156063.73
2019-02-06T21:23:33.522Z,156065.02
2019-02-06T21:26:04.457Z,156046.97
2019-02-06T21:28:33.930Z,156043.09
2019-02-06T21:31:04.013Z,156022.48
2019-02-06T21:33:33.560Z,156003.16
2019-02-06T21:36:03.410Z,156010.88
2019-02-06T21:38:32.900Z,156019.88
2019-02-06T21:41:02.717Z,156017.31
2019-02-06T21:43:32.455Z,156026.37
2019-02-06T21:46:03.642Z,156027.64
2019-02-06T21:48:33.109Z,156027.64
2019-02-06T21:51:02.596Z,156027.64
2019-02-06T21:53:34.748Z,156013.44
2019-02-06T21:56:03.270Z,156025.03
2019-02-06T21:58:32.749Z,156009.59
2019-02-06T22:01:02.622Z,156025.03
2019-02-06T22:03:32.088Z,156014.77
2019-02-06T22:06:01.569Z,156012.16
2019-02-06T22:08:31.042Z,156007.00
2019-02-06T22:11:00.540Z,155996.72
2019-02-06T22:13:30.000Z,155985.11
2019-02-06T22:15:59.679Z,155961.91
2019-02-06T22:18:29.191Z,155952.86
2019-02-06T22:21:03.027Z,155950.31
2019-02-06T22:23:32.507Z,155901.34
2019-02-06T22:26:01.982Z,155863.94
2019-02-06T22:28:31.806Z,155831.75
2019-02-06T22:31:01.272Z,155811.11
2019-02-06T22:33:31.058Z,155845.91
2019-02-06T22:36:00.844Z,155872.98
2019-02-06T22:38:30.538Z,155883.25
2019-02-06T22:41:00.404Z,155876.81
2019-02-06T22:43:30.128Z,155845.91
2019-02-06T22:45:59.592Z,155872.98
2019-02-06T22:48:29.072Z,155852.34
2019-02-06T22:50:58.537Z,155860.11
2019-02-06T22:53:28.024Z,155867.81
2019-02-06T22:55:57.934Z,155834.30
2019-02-06T22:58:27.412Z,155842.06
2019-02-06T23:01:02.858Z,155866.55
2019-02-06T23:03:37.240Z,155874.27
2019-02-06T23:06:07.497Z,155880.69
2019-02-06T23:08:37.308Z,155892.30
2019-02-06T23:11:07.550Z,155878.14
2019-02-06T23:13:37.091Z,155842.06
2019-02-06T23:16:06.813Z,155809.83
2019-02-06T23:18:36.558Z,155805.95
2019-02-06T23:21:06.680Z,155824.03
2019-02-06T23:23:36.709Z,155831.75
2019-02-06T23:26:06.192Z,155842.06
2019-02-06T23:28:35.683Z,155843.34
2019-02-06T23:31:05.224Z,155839.47
2019-02-06T23:33:34.705Z,155830.47
2019-02-06T23:36:04.937Z,155836.91
2019-02-06T23:38:34.495Z,155831.75
2019-02-06T23:41:03.969Z,155844.62
2019-02-06T23:43:33.455Z,155839.47
2019-02-06T23:46:02.953Z,155844.62
2019-02-06T23:48:32.429Z,155849.78
2019-02-06T23:51:01.988Z,155862.66
2019-02-06T23:53:34.203Z,155865.22
2019-02-06T23:56:05.481Z,155856.22
2019-02-06T23:58:35.087Z,155836.91
